SGO200 LCGK-LGRP
Flight info
| Callsign | SGO200 |
|---|---|
| Flight time | 1h 11m |
| Altitude | 14000 |
| Route | VADUS M601 LAKAD |
| Aircraft | C130/H-SDE2E3FGRY/H |
Departure
| Time | 2026-05-05 12:05 |
|---|---|
| Airport | Lefkoniko Airport / Geçitkale Air Base (LCGK) |
Arrival
| Time | 2026-05-05 13:16 |
|---|---|
| Airport | Rhodes International Airport "Diagoras" (LGRP) |
| Time | Latitude | Longitude | Altitude | Speed | Heading |
|---|---|---|---|---|---|
| 2026-05-05 11:55 | 35.23350 | 33.73237 | 152 ft | 0 kts | 23° |
| 2026-05-05 12:03 | 35.23360 | 33.73242 | 152 ft | 7 kts | 33° |
| 2026-05-05 12:03 | 35.23375 | 33.73356 | 151 ft | 18 kts | 91° |
| 2026-05-05 12:03 | 35.23393 | 33.73511 | 150 ft | 19 kts | 46° |
| 2026-05-05 12:04 | 35.23516 | 33.73537 | 153 ft | 17 kts | 356° |
| 2026-05-05 12:04 | 35.23582 | 33.73462 | 152 ft | 12 kts | 275° |
| 2026-05-05 12:04 | 35.23584 | 33.73443 | 152 ft | 0 kts | 273° |
| 2026-05-05 12:05 | 35.23589 | 33.73176 | 153 ft | 71 kts | 270° |
| 2026-05-05 12:05 | 35.23601 | 33.72307 | 296 ft | 121 kts | 272° |
| 2026-05-05 12:05 | 35.23633 | 33.71233 | 846 ft | 131 kts | 275° |
| 2026-05-05 12:06 | 35.23720 | 33.70071 | 1389 ft | 150 kts | 277° |
| 2026-05-05 12:06 | 35.23870 | 33.68711 | 1959 ft | 170 kts | 279° |
| 2026-05-05 12:06 | 35.24038 | 33.67225 | 2646 ft | 181 kts | 279° |
| 2026-05-05 12:06 | 35.24220 | 33.65664 | 3406 ft | 189 kts | 279° |
| 2026-05-05 12:07 | 35.24368 | 33.64050 | 4190 ft | 193 kts | 277° |
| 2026-05-05 12:07 | 35.24489 | 33.62400 | 4964 ft | 196 kts | 276° |
| 2026-05-05 12:07 | 35.24604 | 33.60735 | 5750 ft | 197 kts | 275° |
| 2026-05-05 12:07 | 35.24720 | 33.59060 | 6532 ft | 198 kts | 275° |
| 2026-05-05 12:08 | 35.24837 | 33.57383 | 7290 ft | 198 kts | 275° |
| 2026-05-05 12:08 | 35.24950 | 33.55702 | 8073 ft | 199 kts | 275° |
| 2026-05-05 12:08 | 35.25060 | 33.54014 | 8858 ft | 199 kts | 276° |
| 2026-05-05 12:08 | 35.25159 | 33.52322 | 9668 ft | 200 kts | 276° |
| 2026-05-05 12:09 | 35.25248 | 33.50624 | 10414 ft | 200 kts | 276° |
| 2026-05-05 12:09 | 35.25319 | 33.48924 | 11156 ft | 201 kts | 276° |
| 2026-05-05 12:09 | 35.25370 | 33.47213 | 11907 ft | 202 kts | 276° |
| 2026-05-05 12:09 | 35.25401 | 33.45466 | 12545 ft | 210 kts | 276° |
| 2026-05-05 12:10 | 35.25421 | 33.43628 | 13010 ft | 224 kts | 276° |
| 2026-05-05 12:10 | 35.25436 | 33.41664 | 13417 ft | 237 kts | 276° |
| 2026-05-05 12:10 | 35.25447 | 33.39615 | 13706 ft | 249 kts | 276° |
| 2026-05-05 12:10 | 35.25454 | 33.37468 | 13837 ft | 255 kts | 276° |
| 2026-05-05 12:11 | 35.25458 | 33.35278 | 13942 ft | 260 kts | 275° |
| 2026-05-05 12:11 | 35.25460 | 33.33045 | 13980 ft | 266 kts | 275° |
| 2026-05-05 12:11 | 35.25461 | 33.30768 | 13996 ft | 270 kts | 275° |
| 2026-05-05 12:11 | 35.25461 | 33.28447 | 14003 ft | 274 kts | 275° |
| 2026-05-05 12:12 | 35.25459 | 33.26107 | 13999 ft | 277 kts | 275° |
| 2026-05-05 12:12 | 35.25454 | 33.23744 | 13997 ft | 278 kts | 275° |
| 2026-05-05 12:12 | 35.25450 | 33.21373 | 13996 ft | 279 kts | 275° |
| 2026-05-05 12:12 | 35.25445 | 33.18992 | 13996 ft | 280 kts | 275° |
| 2026-05-05 12:13 | 35.25437 | 33.16606 | 13996 ft | 281 kts | 275° |
| 2026-05-05 12:13 | 35.25428 | 33.14214 | 13996 ft | 281 kts | 275° |
| 2026-05-05 12:13 | 35.25418 | 33.11818 | 13991 ft | 282 kts | 275° |
| 2026-05-05 12:13 | 35.25407 | 33.09418 | 13992 ft | 282 kts | 275° |
| 2026-05-05 12:14 | 35.25395 | 33.07014 | 13987 ft | 282 kts | 275° |
| 2026-05-05 12:14 | 35.25382 | 33.04618 | 13986 ft | 282 kts | 275° |
| 2026-05-05 12:14 | 35.25370 | 33.02213 | 13985 ft | 283 kts | 275° |
| 2026-05-05 12:14 | 35.25362 | 32.99804 | 13983 ft | 283 kts | 275° |
| 2026-05-05 12:15 | 35.25344 | 32.97393 | 13985 ft | 283 kts | 275° |
| 2026-05-05 12:15 | 35.25325 | 32.94983 | 13984 ft | 284 kts | 275° |
| 2026-05-05 12:15 | 35.25307 | 32.92567 | 13983 ft | 284 kts | 275° |
| 2026-05-05 12:15 | 35.25288 | 32.90154 | 13981 ft | 284 kts | 275° |
| 2026-05-05 12:16 | 35.25269 | 32.87771 | 13978 ft | 284 kts | 275° |
| 2026-05-05 12:16 | 35.25249 | 32.85357 | 13976 ft | 284 kts | 275° |
| 2026-05-05 12:16 | 35.25228 | 32.82945 | 13979 ft | 283 kts | 275° |
| 2026-05-05 12:16 | 35.25207 | 32.80533 | 13974 ft | 283 kts | 276° |
| 2026-05-05 12:17 | 35.25369 | 32.78152 | 13974 ft | 279 kts | 283° |
| 2026-05-05 12:17 | 35.25675 | 32.75815 | 13974 ft | 278 kts | 285° |
| 2026-05-05 12:17 | 35.26022 | 32.73482 | 13969 ft | 279 kts | 286° |
| 2026-05-05 12:17 | 35.26385 | 32.71153 | 13970 ft | 279 kts | 286° |
| 2026-05-05 12:18 | 35.26753 | 32.68822 | 13972 ft | 279 kts | 286° |
| 2026-05-05 12:18 | 35.27124 | 32.66490 | 13971 ft | 280 kts | 286° |
| 2026-05-05 12:18 | 35.27497 | 32.64155 | 13970 ft | 280 kts | 286° |
| 2026-05-05 12:18 | 35.27871 | 32.61816 | 13969 ft | 280 kts | 286° |
| 2026-05-05 12:19 | 35.28248 | 32.59476 | 13968 ft | 281 kts | 286° |
| 2026-05-05 12:19 | 35.28626 | 32.57128 | 13968 ft | 281 kts | 286° |
| 2026-05-05 12:19 | 35.29003 | 32.54781 | 13965 ft | 281 kts | 286° |
| 2026-05-05 12:19 | 35.29381 | 32.52429 | 13963 ft | 282 kts | 286° |
| 2026-05-05 12:20 | 35.29759 | 32.50074 | 13967 ft | 282 kts | 286° |
| 2026-05-05 12:20 | 35.30137 | 32.47718 | 13963 ft | 282 kts | 286° |
| 2026-05-05 12:20 | 35.30515 | 32.45359 | 13962 ft | 283 kts | 286° |
| 2026-05-05 12:20 | 35.30896 | 32.42998 | 13966 ft | 283 kts | 286° |
| 2026-05-05 12:21 | 35.31278 | 32.40633 | 13961 ft | 283 kts | 286° |
| 2026-05-05 12:21 | 35.31661 | 32.38266 | 13967 ft | 284 kts | 286° |
| 2026-05-05 12:21 | 35.32045 | 32.35898 | 13965 ft | 284 kts | 286° |
| 2026-05-05 12:21 | 35.32429 | 32.33526 | 13962 ft | 284 kts | 286° |
| 2026-05-05 12:22 | 35.32814 | 32.31156 | 13965 ft | 284 kts | 286° |
| 2026-05-05 12:22 | 35.33201 | 32.28785 | 13965 ft | 284 kts | 286° |
| 2026-05-05 12:22 | 35.33590 | 32.26409 | 13963 ft | 285 kts | 286° |
| 2026-05-05 12:22 | 35.33980 | 32.24031 | 13964 ft | 285 kts | 286° |
| 2026-05-05 12:23 | 35.34371 | 32.21652 | 13965 ft | 285 kts | 286° |
| 2026-05-05 12:23 | 35.34765 | 32.19275 | 13962 ft | 285 kts | 286° |
| 2026-05-05 12:23 | 35.35161 | 32.16890 | 13963 ft | 285 kts | 286° |
| 2026-05-05 12:23 | 35.35558 | 32.14510 | 13962 ft | 286 kts | 286° |
| 2026-05-05 12:24 | 35.35957 | 32.12126 | 13962 ft | 286 kts | 286° |
| 2026-05-05 12:24 | 35.36352 | 32.09773 | 13962 ft | 286 kts | 286° |
| 2026-05-05 12:24 | 35.36767 | 32.07359 | 13960 ft | 285 kts | 287° |
| 2026-05-05 12:24 | 35.37203 | 32.05020 | 13961 ft | 285 kts | 288° |
| 2026-05-05 12:25 | 35.37664 | 32.02657 | 13960 ft | 285 kts | 288° |
| 2026-05-05 12:25 | 35.38136 | 32.00295 | 13958 ft | 285 kts | 288° |
| 2026-05-05 12:25 | 35.38613 | 31.97935 | 13961 ft | 285 kts | 288° |
| 2026-05-05 12:25 | 35.39094 | 31.95578 | 13957 ft | 285 kts | 288° |
| 2026-05-05 12:26 | 35.39580 | 31.93219 | 13959 ft | 285 kts | 288° |
| 2026-05-05 12:26 | 35.40066 | 31.90865 | 13960 ft | 285 kts | 288° |
| 2026-05-05 12:26 | 35.40556 | 31.88508 | 13956 ft | 285 kts | 288° |
| 2026-05-05 12:26 | 35.41046 | 31.86154 | 13955 ft | 285 kts | 288° |
| 2026-05-05 12:27 | 35.41539 | 31.83797 | 13958 ft | 285 kts | 288° |
| 2026-05-05 12:27 | 35.42034 | 31.81441 | 13953 ft | 285 kts | 288° |
| 2026-05-05 12:27 | 35.42532 | 31.79084 | 13955 ft | 286 kts | 288° |
| 2026-05-05 12:27 | 35.43032 | 31.76728 | 13950 ft | 286 kts | 288° |
| 2026-05-05 12:28 | 35.43535 | 31.74373 | 13951 ft | 286 kts | 288° |
| 2026-05-05 12:28 | 35.44041 | 31.72013 | 13951 ft | 286 kts | 288° |
| 2026-05-05 12:28 | 35.44549 | 31.69654 | 13952 ft | 286 kts | 288° |
| 2026-05-05 12:28 | 35.45058 | 31.67297 | 13953 ft | 286 kts | 288° |
| 2026-05-05 12:29 | 35.45563 | 31.64967 | 13952 ft | 286 kts | 288° |
| 2026-05-05 12:29 | 35.46077 | 31.62607 | 13954 ft | 286 kts | 288° |
| 2026-05-05 12:29 | 35.46592 | 31.60250 | 13954 ft | 286 kts | 288° |
| 2026-05-05 12:29 | 35.47109 | 31.57889 | 13950 ft | 286 kts | 288° |
| 2026-05-05 12:30 | 35.47629 | 31.55528 | 13950 ft | 287 kts | 288° |
| 2026-05-05 12:30 | 35.48149 | 31.53169 | 13955 ft | 287 kts | 288° |
| 2026-05-05 12:30 | 35.48670 | 31.50807 | 13952 ft | 287 kts | 288° |
| 2026-05-05 12:30 | 35.49192 | 31.48442 | 13951 ft | 287 kts | 288° |
| 2026-05-05 12:31 | 35.49715 | 31.46079 | 13952 ft | 287 kts | 288° |
| 2026-05-05 12:31 | 35.50239 | 31.43710 | 13951 ft | 288 kts | 288° |
| 2026-05-05 12:31 | 35.50764 | 31.41342 | 13950 ft | 288 kts | 288° |
| 2026-05-05 12:31 | 35.51290 | 31.38970 | 13948 ft | 288 kts | 288° |
| 2026-05-05 12:32 | 35.51816 | 31.36596 | 13949 ft | 288 kts | 288° |
| 2026-05-05 12:32 | 35.52342 | 31.34222 | 13945 ft | 288 kts | 288° |
| 2026-05-05 12:32 | 35.52869 | 31.31850 | 13951 ft | 289 kts | 288° |
| 2026-05-05 12:32 | 35.53398 | 31.29469 | 13948 ft | 289 kts | 288° |
| 2026-05-05 12:33 | 35.53928 | 31.27092 | 13944 ft | 289 kts | 288° |
| 2026-05-05 12:33 | 35.54458 | 31.24713 | 13951 ft | 289 kts | 288° |
| 2026-05-05 12:33 | 35.54990 | 31.22335 | 13951 ft | 289 kts | 288° |
| 2026-05-05 12:33 | 35.55523 | 31.19955 | 13947 ft | 289 kts | 288° |
| 2026-05-05 12:34 | 35.56057 | 31.17571 | 13947 ft | 289 kts | 288° |
| 2026-05-05 12:34 | 35.56590 | 31.15191 | 13948 ft | 290 kts | 288° |
| 2026-05-05 12:34 | 35.57126 | 31.12806 | 13948 ft | 290 kts | 288° |
| 2026-05-05 12:34 | 35.57662 | 31.10420 | 13950 ft | 290 kts | 288° |
| 2026-05-05 12:35 | 35.58199 | 31.08034 | 13952 ft | 290 kts | 288° |
| 2026-05-05 12:35 | 35.58738 | 31.05646 | 13948 ft | 290 kts | 288° |
| 2026-05-05 12:35 | 35.59278 | 31.03260 | 13953 ft | 290 kts | 288° |
| 2026-05-05 12:35 | 35.59818 | 31.00869 | 13949 ft | 290 kts | 288° |
| 2026-05-05 12:36 | 35.60359 | 30.98478 | 13949 ft | 291 kts | 288° |
| 2026-05-05 12:36 | 35.60902 | 30.96088 | 13949 ft | 291 kts | 288° |
| 2026-05-05 12:36 | 35.61446 | 30.93692 | 13947 ft | 291 kts | 288° |
| 2026-05-05 12:36 | 35.61983 | 30.91334 | 13947 ft | 291 kts | 288° |
| 2026-05-05 12:37 | 35.62536 | 30.88910 | 13948 ft | 291 kts | 288° |
| 2026-05-05 12:37 | 35.63083 | 30.86517 | 13942 ft | 291 kts | 288° |
| 2026-05-05 12:37 | 35.63624 | 30.84155 | 13946 ft | 291 kts | 288° |
| 2026-05-05 12:37 | 35.64173 | 30.81760 | 13948 ft | 291 kts | 288° |
| 2026-05-05 12:38 | 35.64722 | 30.79364 | 13943 ft | 291 kts | 288° |
| 2026-05-05 12:38 | 35.65272 | 30.76973 | 13944 ft | 291 kts | 288° |
| 2026-05-05 12:38 | 35.65824 | 30.74576 | 13946 ft | 291 kts | 288° |
| 2026-05-05 12:38 | 35.66376 | 30.72184 | 13947 ft | 291 kts | 288° |
| 2026-05-05 12:39 | 35.66928 | 30.69791 | 13945 ft | 291 kts | 288° |
| 2026-05-05 12:39 | 35.67481 | 30.67397 | 13947 ft | 291 kts | 288° |
| 2026-05-05 12:39 | 35.68036 | 30.65003 | 13945 ft | 291 kts | 288° |
| 2026-05-05 12:39 | 35.68590 | 30.62616 | 13948 ft | 291 kts | 288° |
| 2026-05-05 12:40 | 35.69145 | 30.60224 | 13943 ft | 291 kts | 288° |
| 2026-05-05 12:40 | 35.69701 | 30.57830 | 13944 ft | 291 kts | 288° |
| 2026-05-05 12:40 | 35.70256 | 30.55440 | 13941 ft | 291 kts | 288° |
| 2026-05-05 12:40 | 35.70812 | 30.53051 | 13942 ft | 291 kts | 288° |
| 2026-05-05 12:41 | 35.71368 | 30.50663 | 13941 ft | 290 kts | 288° |
| 2026-05-05 12:41 | 35.71925 | 30.48272 | 13941 ft | 290 kts | 288° |
| 2026-05-05 12:41 | 35.72482 | 30.45886 | 13941 ft | 290 kts | 288° |
| 2026-05-05 12:41 | 35.73039 | 30.43497 | 13943 ft | 290 kts | 288° |
| 2026-05-05 12:42 | 35.73596 | 30.41113 | 13942 ft | 290 kts | 288° |
| 2026-05-05 12:42 | 35.74155 | 30.38724 | 13942 ft | 290 kts | 288° |
| 2026-05-05 12:42 | 35.74525 | 30.37142 | 13941 ft | 290 kts | 288° |
| 2026-05-05 12:42 | 35.75084 | 30.34756 | 13940 ft | 290 kts | 288° |
| 2026-05-05 12:43 | 35.75642 | 30.32369 | 13939 ft | 290 kts | 288° |
| 2026-05-05 12:43 | 35.76199 | 30.29988 | 13936 ft | 290 kts | 288° |
| 2026-05-05 12:43 | 35.76758 | 30.27601 | 13943 ft | 290 kts | 288° |
| 2026-05-05 12:43 | 35.77317 | 30.25216 | 13936 ft | 290 kts | 288° |
| 2026-05-05 12:44 | 35.77875 | 30.22832 | 13937 ft | 290 kts | 288° |
| 2026-05-05 12:44 | 35.78434 | 30.20446 | 13936 ft | 290 kts | 288° |
| 2026-05-05 12:44 | 35.78993 | 30.18063 | 13935 ft | 290 kts | 288° |
| 2026-05-05 12:44 | 35.79551 | 30.15681 | 13937 ft | 290 kts | 288° |
| 2026-05-05 12:45 | 35.80111 | 30.13296 | 13936 ft | 290 kts | 288° |
| 2026-05-05 12:45 | 35.80669 | 30.10916 | 13933 ft | 290 kts | 288° |
| 2026-05-05 12:45 | 35.81228 | 30.08533 | 13932 ft | 289 kts | 288° |
| 2026-05-05 12:45 | 35.81787 | 30.06151 | 13934 ft | 289 kts | 288° |
| 2026-05-05 12:46 | 35.82346 | 30.03771 | 13929 ft | 289 kts | 288° |
| 2026-05-05 12:46 | 35.82904 | 30.01390 | 13933 ft | 289 kts | 288° |
| 2026-05-05 12:46 | 35.83462 | 29.99008 | 13933 ft | 289 kts | 288° |
| 2026-05-05 12:46 | 35.84021 | 29.96629 | 13930 ft | 289 kts | 288° |
| 2026-05-05 12:47 | 35.84582 | 29.94248 | 13927 ft | 289 kts | 288° |
| 2026-05-05 12:47 | 35.85142 | 29.91870 | 13928 ft | 289 kts | 288° |
| 2026-05-05 12:47 | 35.85703 | 29.89489 | 13928 ft | 289 kts | 288° |
| 2026-05-05 12:47 | 35.86265 | 29.87111 | 13928 ft | 289 kts | 288° |
| 2026-05-05 12:48 | 35.86829 | 29.84730 | 13926 ft | 289 kts | 288° |
| 2026-05-05 12:48 | 35.87386 | 29.82379 | 13922 ft | 289 kts | 288° |
| 2026-05-05 12:48 | 35.87951 | 29.79999 | 13924 ft | 289 kts | 288° |
| 2026-05-05 12:48 | 35.88517 | 29.77619 | 13922 ft | 290 kts | 288° |
| 2026-05-05 12:49 | 35.89085 | 29.75234 | 13923 ft | 290 kts | 288° |
| 2026-05-05 12:49 | 35.89651 | 29.72852 | 13922 ft | 290 kts | 288° |
| 2026-05-05 12:49 | 35.90220 | 29.70470 | 13924 ft | 290 kts | 288° |
| 2026-05-05 12:49 | 35.90789 | 29.68086 | 13921 ft | 290 kts | 288° |
| 2026-05-05 12:50 | 35.91359 | 29.65701 | 13919 ft | 290 kts | 288° |
| 2026-05-05 12:50 | 35.91929 | 29.63317 | 13922 ft | 290 kts | 288° |
| 2026-05-05 12:50 | 35.92501 | 29.60930 | 13920 ft | 290 kts | 288° |
| 2026-05-05 12:50 | 35.93072 | 29.58549 | 13918 ft | 290 kts | 288° |
| 2026-05-05 12:51 | 35.93644 | 29.56162 | 13919 ft | 290 kts | 288° |
| 2026-05-05 12:51 | 35.94218 | 29.53774 | 13918 ft | 290 kts | 288° |
| 2026-05-05 12:51 | 35.94790 | 29.51392 | 13914 ft | 290 kts | 288° |
| 2026-05-05 12:51 | 35.95364 | 29.49005 | 13917 ft | 290 kts | 288° |
| 2026-05-05 12:52 | 35.95938 | 29.46619 | 13913 ft | 290 kts | 288° |
| 2026-05-05 12:52 | 35.96513 | 29.44235 | 13916 ft | 290 kts | 288° |
| 2026-05-05 12:52 | 35.97087 | 29.41850 | 13918 ft | 290 kts | 288° |
| 2026-05-05 12:52 | 35.97683 | 29.39474 | 13912 ft | 289 kts | 290° |
| 2026-05-05 12:53 | 35.98401 | 29.37160 | 13915 ft | 289 kts | 294° |
| 2026-05-05 12:53 | 35.99201 | 29.34895 | 13916 ft | 288 kts | 295° |
| 2026-05-05 12:53 | 36.00030 | 29.32637 | 13911 ft | 288 kts | 296° |
| 2026-05-05 12:53 | 36.00868 | 29.30385 | 13913 ft | 288 kts | 296° |
| 2026-05-05 12:54 | 36.02553 | 29.25889 | 13911 ft | 288 kts | 296° |
| 2026-05-05 12:54 | 36.03396 | 29.23648 | 13909 ft | 288 kts | 296° |
| 2026-05-05 12:54 | 36.04240 | 29.21401 | 13907 ft | 288 kts | 296° |
| 2026-05-05 12:55 | 36.05083 | 29.19156 | 13910 ft | 288 kts | 296° |
| 2026-05-05 12:55 | 36.05925 | 29.16917 | 13906 ft | 288 kts | 296° |
| 2026-05-05 12:55 | 36.06769 | 29.14671 | 13909 ft | 288 kts | 296° |
| 2026-05-05 12:55 | 36.07610 | 29.12430 | 13907 ft | 287 kts | 296° |
| 2026-05-05 12:56 | 36.08450 | 29.10192 | 13905 ft | 287 kts | 296° |
| 2026-05-05 12:56 | 36.09290 | 29.07949 | 13905 ft | 287 kts | 296° |
| 2026-05-05 12:56 | 36.10130 | 29.05712 | 13906 ft | 287 kts | 296° |
| 2026-05-05 12:56 | 36.10958 | 29.03503 | 13902 ft | 287 kts | 296° |
| 2026-05-05 12:57 | 36.11797 | 29.01268 | 13902 ft | 287 kts | 296° |
| 2026-05-05 12:57 | 36.12637 | 28.99030 | 13904 ft | 287 kts | 296° |
| 2026-05-05 12:57 | 36.13476 | 28.96794 | 13901 ft | 287 kts | 296° |
| 2026-05-05 12:57 | 36.14314 | 28.94555 | 13902 ft | 286 kts | 296° |
| 2026-05-05 12:58 | 36.15152 | 28.92321 | 13899 ft | 287 kts | 296° |
| 2026-05-05 12:58 | 36.15989 | 28.90085 | 13898 ft | 286 kts | 296° |
| 2026-05-05 12:58 | 36.16825 | 28.87847 | 13901 ft | 286 kts | 296° |
| 2026-05-05 12:58 | 36.17659 | 28.85612 | 13899 ft | 286 kts | 296° |
| 2026-05-05 12:59 | 36.18494 | 28.83376 | 13896 ft | 286 kts | 296° |
| 2026-05-05 12:59 | 36.19325 | 28.81142 | 13896 ft | 286 kts | 296° |
| 2026-05-05 12:59 | 36.20156 | 28.78909 | 13894 ft | 286 kts | 296° |
| 2026-05-05 13:00 | 36.21432 | 28.75470 | 13895 ft | 283 kts | 296° |
| 2026-05-05 13:00 | 36.22258 | 28.73248 | 13891 ft | 284 kts | 296° |
| 2026-05-05 13:01 | 36.24738 | 28.66576 | 13889 ft | 285 kts | 296° |
| 2026-05-05 13:01 | 36.25567 | 28.64347 | 13886 ft | 285 kts | 296° |
| 2026-05-05 13:01 | 36.26396 | 28.62121 | 13888 ft | 285 kts | 296° |
| 2026-05-05 13:01 | 36.27207 | 28.59930 | 13514 ft | 270 kts | 296° |
| 2026-05-05 13:02 | 36.27946 | 28.57862 | 13034 ft | 255 kts | 294° |
| 2026-05-05 13:02 | 36.28359 | 28.55776 | 12532 ft | 247 kts | 277° |
| 2026-05-05 13:02 | 36.28696 | 28.53770 | 12015 ft | 233 kts | 297° |
| 2026-05-05 13:02 | 36.29441 | 28.52023 | 11546 ft | 225 kts | 304° |
| 2026-05-05 13:03 | 36.30339 | 28.50473 | 11072 ft | 219 kts | 310° |
| 2026-05-05 13:03 | 36.31369 | 28.49135 | 10586 ft | 213 kts | 330° |
| 2026-05-05 13:03 | 36.32737 | 28.48506 | 10129 ft | 208 kts | 346° |
| 2026-05-05 13:03 | 36.34143 | 28.48260 | 9669 ft | 205 kts | 355° |
| 2026-05-05 13:04 | 36.35561 | 28.48141 | 9185 ft | 203 kts | 357° |
| 2026-05-05 13:04 | 36.36967 | 28.48061 | 8709 ft | 201 kts | 358° |
| 2026-05-05 13:04 | 36.38359 | 28.47998 | 8226 ft | 199 kts | 0° |
| 2026-05-05 13:04 | 36.39669 | 28.48480 | 7740 ft | 199 kts | 28° |
| 2026-05-05 13:05 | 36.40844 | 28.49365 | 7294 ft | 197 kts | 30° |
| 2026-05-05 13:05 | 36.42000 | 28.50261 | 6857 ft | 195 kts | 30° |
| 2026-05-05 13:05 | 36.43219 | 28.50927 | 6379 ft | 192 kts | 9° |
| 2026-05-05 13:05 | 36.44541 | 28.51098 | 5940 ft | 190 kts | 5° |
| 2026-05-05 13:06 | 36.45851 | 28.51265 | 5482 ft | 188 kts | 5° |
| 2026-05-05 13:06 | 36.47130 | 28.51040 | 5020 ft | 187 kts | 339° |
| 2026-05-05 13:06 | 36.48291 | 28.50358 | 4647 ft | 183 kts | 330° |
| 2026-05-05 13:06 | 36.49075 | 28.49143 | 4227 ft | 185 kts | 291° |
| 2026-05-05 13:07 | 36.49370 | 28.47641 | 3947 ft | 174 kts | 286° |
| 2026-05-05 13:07 | 36.49559 | 28.46189 | 3679 ft | 165 kts | 280° |
| 2026-05-05 13:07 | 36.49650 | 28.44802 | 3438 ft | 158 kts | 278° |
| 2026-05-05 13:07 | 36.49706 | 28.43468 | 3190 ft | 152 kts | 277° |
| 2026-05-05 13:08 | 36.49737 | 28.42209 | 3124 ft | 138 kts | 276° |
| 2026-05-05 13:08 | 36.49715 | 28.41055 | 3106 ft | 129 kts | 272° |
| 2026-05-05 13:08 | 36.49613 | 28.39973 | 3086 ft | 124 kts | 265° |
| 2026-05-05 13:08 | 36.49393 | 28.38951 | 3070 ft | 121 kts | 259° |
| 2026-05-05 13:09 | 36.49084 | 28.37982 | 3057 ft | 121 kts | 250° |
| 2026-05-05 13:09 | 36.48736 | 28.37007 | 3074 ft | 128 kts | 257° |
| 2026-05-05 13:09 | 36.48443 | 28.35942 | 3117 ft | 132 kts | 259° |
| 2026-05-05 13:09 | 36.48159 | 28.34840 | 3125 ft | 136 kts | 258° |
| 2026-05-05 13:10 | 36.47864 | 28.33705 | 3131 ft | 141 kts | 258° |
| 2026-05-05 13:10 | 36.47547 | 28.32555 | 3138 ft | 144 kts | 257° |
| 2026-05-05 13:10 | 36.47194 | 28.31358 | 3148 ft | 147 kts | 256° |
| 2026-05-05 13:10 | 36.46849 | 28.30186 | 3149 ft | 146 kts | 256° |
| 2026-05-05 13:11 | 36.46496 | 28.28998 | 3085 ft | 149 kts | 256° |
| 2026-05-05 13:11 | 36.46125 | 28.27745 | 2929 ft | 156 kts | 256° |
| 2026-05-05 13:11 | 36.45762 | 28.26527 | 2758 ft | 144 kts | 256° |
| 2026-05-05 13:11 | 36.45438 | 28.25466 | 2576 ft | 123 kts | 257° |
| 2026-05-05 13:12 | 36.45153 | 28.24507 | 2411 ft | 115 kts | 257° |
| 2026-05-05 13:12 | 36.44886 | 28.23589 | 2252 ft | 110 kts | 258° |
| 2026-05-05 13:12 | 36.44634 | 28.22703 | 2123 ft | 109 kts | 259° |
| 2026-05-05 13:12 | 36.44395 | 28.21784 | 1971 ft | 113 kts | 259° |
| 2026-05-05 13:13 | 36.44128 | 28.20874 | 1810 ft | 108 kts | 258° |
| 2026-05-05 13:13 | 36.43864 | 28.19997 | 1658 ft | 106 kts | 258° |
| 2026-05-05 13:13 | 36.43610 | 28.19158 | 1523 ft | 102 kts | 258° |
| 2026-05-05 13:13 | 36.43368 | 28.18338 | 1384 ft | 101 kts | 258° |
| 2026-05-05 13:14 | 36.43127 | 28.17517 | 1256 ft | 101 kts | 258° |
| 2026-05-05 13:14 | 36.42902 | 28.16690 | 1118 ft | 101 kts | 257° |
| 2026-05-05 13:14 | 36.42672 | 28.15866 | 982 ft | 101 kts | 257° |
| 2026-05-05 13:14 | 36.42439 | 28.15047 | 842 ft | 100 kts | 258° |
| 2026-05-05 13:15 | 36.42200 | 28.14231 | 718 ft | 101 kts | 259° |
| 2026-05-05 13:15 | 36.42009 | 28.13409 | 585 ft | 97 kts | 252° |
| 2026-05-05 13:15 | 36.41765 | 28.12642 | 456 ft | 94 kts | 250° |
| 2026-05-05 13:15 | 36.41542 | 28.11891 | 330 ft | 93 kts | 249° |
| 2026-05-05 13:16 | 36.41306 | 28.11125 | 210 ft | 96 kts | 249° |
| 2026-05-05 13:16 | 36.41068 | 28.10347 | 86 ft | 96 kts | 246° |
| 2026-05-05 13:16 | 36.40822 | 28.09602 | 29 ft | 83 kts | 244° |
| 2026-05-05 13:16 | 36.40649 | 28.09145 | 31 ft | 35 kts | 212° |
| 2026-05-05 13:17 | 36.40434 | 28.09076 | 29 ft | 26 kts | 172° |
| 2026-05-05 13:17 | 36.40346 | 28.09108 | 29 ft | 0 kts | 156° |